Time;durP1;ratioP1;P1;durP2;ratioP2;P2;SDS_P1;SDS_P2;PMS_P1;PMS_P2;Temp;Humidity;BMP_temperature;BMP_pressure;BME280_temperature;BME280_humidity;BME280_pressure;Samples;Min_cycle;Max_cycle;Signal;HPM_P1;HPM_P2
2021/10/13 00:00:07;;;;;;;0.00;0.00;;;13.70;71.70;;;;;;5057882;28;20037;-77
2021/10/13 00:02:33;;;;;;;0.00;0.00;;;13.70;71.90;;;;;;5076146;28;20390;-77
2021/10/13 00:04:59;;;;;;;0.00;0.00;;;13.70;71.80;;;;;;5075571;28;20123;-78
2021/10/13 00:07:25;;;;;;;0.00;0.00;;;13.70;72.00;;;;;;5075891;28;20396;-78
2021/10/13 00:09:50;;;;;;;0.00;0.00;;;13.70;71.90;;;;;;5074493;28;20479;-78
2021/10/13 00:12:17;;;;;;;0.00;0.00;;;13.70;72.00;;;;;;5075705;28;20456;-78
2021/10/13 00:14:44;;;;;;;0.00;0.00;;;13.70;72.10;;;;;;5057626;28;20029;-79
2021/10/13 00:17:09;;;;;;;0.00;0.00;;;13.70;72.40;;;;;;5075578;28;20112;-77
2021/10/13 00:19:35;;;;;;;0.00;0.00;;;13.60;72.50;;;;;;5075628;28;20485;-78
2021/10/13 00:22:01;;;;;;;0.00;0.00;;;13.60;72.70;;;;;;5075066;28;20044;-78
2021/10/13 00:24:28;;;;;;;0.00;0.00;;;13.60;72.80;;;;;;5075097;28;20031;-77
2021/10/13 00:26:53;;;;;;;0.00;0.00;;;13.60;72.50;;;;;;5074971;28;20033;-77
2021/10/13 00:29:20;;;;;;;0.00;0.00;;;13.60;72.30;;;;;;5075106;28;20027;-76
2021/10/13 00:31:46;;;;;;;0.00;0.00;;;13.70;72.30;;;;;;5075239;28;20097;-77
2021/10/13 00:34:11;;;;;;;0.00;0.00;;;13.60;72.30;;;;;;5057979;28;20052;-76
2021/10/13 00:36:37;;;;;;;0.00;0.00;;;13.60;72.30;;;;;;5057371;28;20033;-76
2021/10/13 00:39:03;;;;;;;0.00;0.00;;;13.60;72.10;;;;;;5074776;28;20028;-78
2021/10/13 00:41:29;;;;;;;0.00;0.00;;;13.60;71.80;;;;;;5075085;28;20027;-78
2021/10/13 00:43:54;;;;;;;0.00;0.00;;;13.60;71.80;;;;;;5056957;28;20028;-77
2021/10/13 00:46:20;;;;;;;0.00;0.00;;;13.60;72.00;;;;;;5074910;28;20052;-78
2021/10/13 00:48:46;;;;;;;0.00;0.00;;;13.60;72.10;;;;;;5074755;28;20064;-79
2021/10/13 00:51:12;;;;;;;0.00;0.00;;;13.60;72.00;;;;;;5074667;28;20032;-78
2021/10/13 00:53:39;;;;;;;0.00;0.00;;;13.50;71.80;;;;;;5073720;28;20025;-77
2021/10/13 00:56:05;;;;;;;0.00;0.00;;;13.50;71.60;;;;;;5055959;28;20024;-78
2021/10/13 00:58:30;;;;;;;0.00;0.00;;;13.40;71.60;;;;;;5054664;28;20108;-77
2021/10/13 01:01:14;;;;;;;0.00;0.00;;;13.50;71.70;;;;;;5075203;28;20028;-78
2021/10/13 01:04:03;;;;;;;0.00;0.00;;;13.50;71.60;;;;;;5073278;28;20029;-78
2021/10/13 01:06:40;;;;;;;0.00;0.00;;;13.40;71.40;;;;;;5056022;28;20082;-78
2021/10/13 01:09:11;;;;;;;0.00;0.00;;;13.40;71.30;;;;;;5073977;28;20048;-77
2021/10/13 01:11:46;;;;;;;0.00;0.00;;;13.40;71.20;;;;;;5056979;28;20138;-77
2021/10/13 01:14:21;;;;;;;0.00;0.00;;;13.40;71.40;;;;;;5073992;28;20025;-78
2021/10/13 01:16:53;;;;;;;0.00;0.00;;;13.40;71.40;;;;;;5074300;28;20523;-77
2021/10/13 01:19:49;;;;;;;0.00;0.00;;;13.40;71.40;;;;;;5056361;28;20032;-76
2021/10/13 01:22:21;;;;;;;0.00;0.00;;;13.40;71.60;;;;;;5074021;28;20490;-77
2021/10/13 01:24:59;;;;;;;0.00;0.00;;;13.40;71.70;;;;;;5074213;28;20024;-77
2021/10/13 01:27:49;;;;;;;0.00;0.00;;;13.40;71.90;;;;;;5074229;28;20369;-76
2021/10/13 01:30:18;;;;;;;0.00;0.00;;;13.40;72.10;;;;;;5065927;28;20473;-77
2021/10/13 01:32:50;;;;;;;0.00;0.00;;;13.40;72.20;;;;;;5054234;28;20048;-78
2021/10/13 01:35:19;;;;;;;0.00;0.00;;;13.30;72.40;;;;;;5054093;28;20469;-77
2021/10/13 01:37:53;;;;;;;0.00;0.00;;;13.30;72.70;;;;;;5054176;28;20411;-77
2021/10/13 01:40:22;;;;;;;0.00;0.00;;;13.30;73.00;;;;;;5036120;28;20032;-77
2021/10/13 01:42:51;;;;;;;0.00;0.00;;;13.30;73.20;;;;;;5035945;28;20045;-78
2021/10/13 01:45:18;;;;;;;0.00;0.00;;;13.20;73.40;;;;;;5053927;28;20118;-77
2021/10/13 01:47:48;;;;;;;0.00;0.00;;;13.20;73.80;;;;;;5064423;28;20373;-77
2021/10/13 01:50:16;;;;;;;0.00;0.00;;;13.20;74.30;;;;;;5073592;28;20071;-77
2021/10/13 01:52:48;;;;;;;0.00;0.00;;;13.20;74.60;;;;;;5055648;28;20044;-77
2021/10/13 01:55:15;;;;;;;0.00;0.00;;;13.20;74.80;;;;;;5063133;28;20103;-77
2021/10/13 01:57:45;;;;;;;0.00;0.00;;;13.10;75.00;;;;;;5019922;28;20427;-77
2021/10/13 02:00:12;;;;;;;0.00;0.00;;;13.10;75.30;;;;;;5053662;28;20425;-76
2021/10/13 02:02:40;;;;;;;0.00;0.00;;;13.10;75.50;;;;;;5053747;28;20079;-78
2021/10/13 02:05:08;;;;;;;0.00;0.00;;;13.10;75.60;;;;;;5035820;28;20350;-77
2021/10/13 02:07:37;;;;;;;0.00;0.00;;;13.10;75.80;;;;;;5019139;28;20040;-77
2021/10/13 02:10:06;;;;;;;0.00;0.00;;;13.10;76.10;;;;;;5053277;28;20079;-78
2021/10/13 02:12:35;;;;;;;0.00;0.00;;;13.10;76.30;;;;;;5053451;28;20039;-78
2021/10/13 02:15:04;;;;;;;0.00;0.00;;;13.10;76.30;;;;;;5053370;28;20061;-77
2021/10/13 02:17:33;;;;;;;0.00;0.00;;;13.20;76.50;;;;;;5035942;28;20025;-77
2021/10/13 02:20:01;;;;;;;0.10;0.10;;;13.10;76.50;;;;;;5053297;28;20028;-77
2021/10/13 02:22:31;;;;;;;0.00;0.00;;;13.10;76.60;;;;;;5053621;28;20086;-77
2021/10/13 02:24:57;;;;;;;0.00;0.00;;;13.20;76.70;;;;;;5019910;28;20029;-78
2021/10/13 02:27:44;;;;;;;0.00;0.00;;;13.20;76.60;;;;;;5054046;28;20029;-77
2021/10/13 02:30:10;;;;;;;0.00;0.00;;;13.20;76.70;;;;;;5053657;28;20018;-78
2021/10/13 02:32:36;;;;;;;0.00;0.00;;;13.20;76.40;;;;;;5053041;28;20025;-77
2021/10/13 02:35:04;;;;;;;0.00;0.00;;;13.20;76.30;;;;;;5053119;28;20095;-78
2021/10/13 02:37:30;;;;;;;0.00;0.00;;;13.20;76.20;;;;;;5053495;28;20053;-77
2021/10/13 02:39:55;;;;;;;0.00;0.00;;;13.20;76.20;;;;;;5052955;28;20139;-78
2021/10/13 02:42:21;;;;;;;0.00;0.00;;;13.20;76.10;;;;;;5052954;28;20044;-77
2021/10/13 02:44:47;;;;;;;0.00;0.00;;;13.20;76.00;;;;;;5052963;28;20096;-77
2021/10/13 02:47:18;;;;;;;0.00;0.00;;;13.20;76.00;;;;;;5052945;28;20032;-78
2021/10/13 02:49:55;;;;;;;0.00;0.00;;;13.20;76.00;;;;;;5053092;28;20108;-77
2021/10/13 02:52:31;;;;;;;0.10;0.00;;;13.20;76.10;;;;;;5035428;28;20087;-76
2021/10/13 02:55:02;;;;;;;0.00;0.00;;;13.20;76.10;;;;;;5035343;28;20029;-77
2021/10/13 02:57:40;;;;;;;0.00;0.00;;;13.10;75.70;;;;;;5035311;28;20053;-78
2021/10/13 03:00:07;;;;;;;0.00;0.00;;;13.10;75.70;;;;;;5052837;28;20032;-77
2021/10/13 03:02:42;;;;;;;0.00;0.00;;;13.10;75.80;;;;;;5053161;28;20044;-76
2021/10/13 03:05:08;;;;;;;0.00;0.00;;;13.10;76.00;;;;;;5035266;28;20488;-77
2021/10/13 03:07:40;;;;;;;0.00;0.00;;;13.00;75.90;;;;;;5052577;28;20037;-76
2021/10/13 03:10:06;;;;;;;0.00;0.00;;;13.00;76.00;;;;;;5035098;28;20029;-78
2021/10/13 03:12:50;;;;;;;0.00;0.00;;;13.00;75.90;;;;;;5052869;28;20123;-77
2021/10/13 03:15:17;;;;;;;0.00;0.00;;;12.90;76.10;;;;;;5052863;28;20064;-78
2021/10/13 03:17:47;;;;;;;0.00;0.00;;;12.90;75.90;;;;;;5053043;28;20025;-78
2021/10/13 03:20:16;;;;;;;0.00;0.00;;;12.90;76.10;;;;;;5038060;28;20043;-76
2021/10/13 03:22:43;;;;;;;0.00;0.00;;;12.80;76.00;;;;;;5049622;28;20212;-78
2021/10/13 03:25:09;;;;;;;0.00;0.00;;;12.80;75.90;;;;;;5029928;28;20030;-78
2021/10/13 03:27:35;;;;;;;0.00;0.00;;;12.70;75.80;;;;;;5044465;28;20500;-78
2021/10/13 03:30:00;;;;;;;0.00;0.00;;;12.70;76.00;;;;;;5046580;28;20021;-78
2021/10/13 03:32:26;;;;;;;0.00;0.00;;;12.70;75.90;;;;;;5045350;28;20036;-78
2021/10/13 03:34:52;;;;;;;0.00;0.00;;;12.70;76.00;;;;;;5044616;28;20033;-78
2021/10/13 03:37:18;;;;;;;0.00;0.00;;;12.70;76.10;;;;;;5028633;28;20027;-77
2021/10/13 03:39:48;;;;;;;0.00;0.00;;;12.70;76.20;;;;;;5028584;28;20025;-79
2021/10/13 03:42:14;;;;;;;0.00;0.00;;;12.70;76.30;;;;;;5028442;28;20043;-78
2021/10/13 03:44:40;;;;;;;0.00;0.00;;;12.70;76.30;;;;;;5046041;28;20104;-76
2021/10/13 03:47:06;;;;;;;0.00;0.00;;;12.70;76.40;;;;;;5027085;28;20037;-78
2021/10/13 03:49:33;;;;;;;0.00;0.00;;;12.70;76.40;;;;;;5046857;28;20559;-78
2021/10/13 03:51:59;;;;;;;0.00;0.00;;;12.70;76.40;;;;;;5044031;28;20022;-78
2021/10/13 03:54:25;;;;;;;0.00;0.00;;;12.70;76.50;;;;;;5045327;28;20032;-78
2021/10/13 03:56:51;;;;;;;0.00;0.00;;;12.70;76.40;;;;;;5045558;28;20373;-78
2021/10/13 03:59:17;;;;;;;0.00;0.00;;;12.70;76.30;;;;;;5044702;28;20025;-78
2021/10/13 04:01:42;;;;;;;0.00;0.00;;;12.70;76.40;;;;;;5053336;28;20060;-78
2021/10/13 04:04:08;;;;;;;0.00;0.00;;;12.80;76.50;;;;;;5037763;28;20066;-76
2021/10/13 04:06:34;;;;;;;0.00;0.00;;;12.80;76.40;;;;;;5037942;28;20025;-76
2021/10/13 04:09:00;;;;;;;0.00;0.00;;;12.70;76.40;;;;;;5055349;28;20040;-79
2021/10/13 04:11:26;;;;;;;0.00;0.00;;;12.70;76.30;;;;;;5055400;28;20029;-77
2021/10/13 04:13:51;;;;;;;0.00;0.00;;;12.80;76.40;;;;;;5055824;28;20029;-79
2021/10/13 04:16:17;;;;;;;0.00;0.00;;;12.80;76.40;;;;;;5036986;28;20079;-78
2021/10/13 04:18:43;;;;;;;0.00;0.00;;;12.70;76.20;;;;;;5055854;28;20029;-78
2021/10/13 04:21:08;;;;;;;0.00;0.00;;;12.70;76.10;;;;;;5055331;28;20421;-78
2021/10/13 04:23:34;;;;;;;0.00;0.00;;;12.70;76.10;;;;;;5055034;28;20045;-78
2021/10/13 04:26:00;;;;;;;0.00;0.00;;;12.70;76.00;;;;;;5055172;28;20056;-78
2021/10/13 04:28:26;;;;;;;0.00;0.00;;;12.70;75.80;;;;;;5055703;28;20082;-77
2021/10/13 04:30:51;;;;;;;0.00;0.00;;;12.70;75.70;;;;;;5054450;28;20075;-77
2021/10/13 04:33:17;;;;;;;0.00;0.00;;;12.70;75.70;;;;;;5055079;28;20064;-78
2021/10/13 04:35:43;;;;;;;0.00;0.00;;;12.70;75.60;;;;;;5054924;28;20053;-77
2021/10/13 04:38:08;;;;;;;0.00;0.00;;;12.60;75.50;;;;;;5054885;28;20053;-78
2021/10/13 04:40:34;;;;;;;0.00;0.00;;;12.70;75.40;;;;;;5054851;28;20465;-77
2021/10/13 04:43:01;;;;;;;0.00;0.00;;;12.60;75.30;;;;;;5046265;28;20033;-79
2021/10/13 04:45:26;;;;;;;0.00;0.00;;;12.60;75.20;;;;;;5026246;28;20480;-77
2021/10/13 04:47:52;;;;;;;0.10;0.10;;;12.60;75.30;;;;;;5045215;28;20024;-78
2021/10/13 04:50:18;;;;;;;0.00;0.00;;;12.60;75.40;;;;;;5043532;28;20025;-77
2021/10/13 04:52:44;;;;;;;0.00;0.00;;;12.60;75.50;;;;;;5043046;28;20528;-78
2021/10/13 04:55:11;;;;;;;0.00;0.00;;;12.60;75.50;;;;;;5046007;28;20017;-78
2021/10/13 04:57:37;;;;;;;0.00;0.00;;;12.50;75.30;;;;;;5043646;28;20431;-79
2021/10/13 05:00:05;;;;;;;0.00;0.00;;;12.60;75.30;;;;;;5043270;28;20029;-79
2021/10/13 05:02:30;;;;;;;0.00;0.00;;;12.60;75.20;;;;;;5042241;28;20120;-78
2021/10/13 05:04:56;;;;;;;0.00;0.00;;;12.50;75.10;;;;;;5045218;28;20104;-79
2021/10/13 05:07:22;;;;;;;0.00;0.00;;;12.50;74.90;;;;;;5047690;28;20056;-77
2021/10/13 05:09:48;;;;;;;0.00;0.00;;;12.50;74.80;;;;;;5043930;28;20112;-78
2021/10/13 05:12:14;;;;;;;0.00;0.00;;;12.50;74.80;;;;;;5041319;28;20505;-78
2021/10/13 05:14:41;;;;;;;0.00;0.00;;;12.50;74.70;;;;;;5031005;28;20358;-78
2021/10/13 05:17:07;;;;;;;0.00;0.00;;;12.40;74.60;;;;;;5036515;28;20465;-77
2021/10/13 05:19:32;;;;;;;0.00;0.00;;;12.40;74.60;;;;;;5047283;28;20036;-77
2021/10/13 05:21:58;;;;;;;0.00;0.00;;;12.40;74.80;;;;;;5016760;28;20072;-76
2021/10/13 05:24:24;;;;;;;0.00;0.00;;;12.40;74.70;;;;;;5016425;28;20057;-77
2021/10/13 05:26:50;;;;;;;0.00;0.00;;;12.40;74.80;;;;;;5016519;28;20075;-78
2021/10/13 05:29:15;;;;;;;0.00;0.00;;;12.40;74.60;;;;;;5016575;28;20031;-77
2021/10/13 05:31:41;;;;;;;0.00;0.00;;;12.40;74.70;;;;;;5033807;28;20052;-77
2021/10/13 05:34:07;;;;;;;0.00;0.00;;;12.40;74.70;;;;;;5034394;28;20125;-78
2021/10/13 05:36:32;;;;;;;0.00;0.00;;;12.30;74.60;;;;;;5034246;28;20025;-78
2021/10/13 05:38:58;;;;;;;0.00;0.00;;;12.30;74.70;;;;;;5016388;28;20096;-78
2021/10/13 05:41:24;;;;;;;0.00;0.00;;;12.30;74.80;;;;;;5033252;28;20083;-78
2021/10/13 05:43:50;;;;;;;0.00;0.00;;;12.30;74.90;;;;;;5016079;28;20389;-78
2021/10/13 05:46:16;;;;;;;0.00;0.00;;;12.30;74.90;;;;;;5033564;28;20029;-78
2021/10/13 05:48:41;;;;;;;0.00;0.00;;;12.30;74.80;;;;;;5034093;28;20033;-77
2021/10/13 05:51:07;;;;;;;0.00;0.00;;;12.30;74.90;;;;;;5033082;28;20030;-77
2021/10/13 05:53:33;;;;;;;0.00;0.00;;;12.30;74.80;;;;;;5047302;28;20037;-77
2021/10/13 05:55:59;;;;;;;0.00;0.00;;;12.30;74.80;;;;;;5029602;28;20033;-77
2021/10/13 05:58:26;;;;;;;0.00;0.00;;;12.30;74.90;;;;;;5044843;28;20025;-79
2021/10/13 06:00:53;;;;;;;0.00;0.00;;;12.30;74.80;;;;;;5026399;28;20026;-79
2021/10/13 06:03:20;;;;;;;0.00;0.00;;;12.30;74.90;;;;;;5042919;28;20029;-79
2021/10/13 06:05:47;;;;;;;0.00;0.00;;;12.40;75.00;;;;;;5041598;28;20070;-78
2021/10/13 06:08:13;;;;;;;0.00;0.00;;;12.40;75.00;;;;;;5041913;28;20040;-79
2021/10/13 06:10:39;;;;;;;0.00;0.00;;;12.40;75.00;;;;;;5041993;28;20024;-77
2021/10/13 06:13:05;;;;;;;0.00;0.00;;;12.40;74.80;;;;;;5043154;28;20061;-77
2021/10/13 06:15:37;;;;;;;0.00;0.00;;;12.40;74.80;;;;;;5023871;28;20064;-81
2021/10/13 06:18:07;;;;;;;0.00;0.00;;;12.40;74.80;;;;;;5022332;28;20030;-80
2021/10/13 06:20:34;;;;;;;0.00;0.00;;;12.40;74.80;;;;;;5044150;28;20021;-80
2021/10/13 06:23:00;;;;;;;0.00;0.00;;;12.40;74.80;;;;;;5022967;28;20025;-79
2021/10/13 06:25:27;;;;;;;0.00;0.00;;;12.40;74.80;;;;;;5043168;28;20025;-76
2021/10/13 06:27:52;;;;;;;0.00;0.00;;;12.40;74.90;;;;;;5045345;28;20050;-79
2021/10/13 06:30:18;;;;;;;0.00;0.00;;;12.40;75.00;;;;;;5053593;28;20040;-79
2021/10/13 06:32:44;;;;;;;0.00;0.00;;;12.40;75.20;;;;;;5053001;28;20496;-78
2021/10/13 06:35:10;;;;;;;0.10;0.00;;;12.40;75.40;;;;;;5052752;28;20040;-79
2021/10/13 06:37:35;;;;;;;0.00;0.00;;;12.40;75.50;;;;;;5035514;28;20037;-78
2021/10/13 06:40:01;;;;;;;0.00;0.00;;;12.40;75.40;;;;;;5053341;28;20028;-78
2021/10/13 06:42:27;;;;;;;0.00;0.00;;;12.40;75.40;;;;;;5052787;28;20538;-78
2021/10/13 06:44:52;;;;;;;0.00;0.00;;;12.30;75.50;;;;;;5018991;28;20121;-78
2021/10/13 06:47:18;;;;;;;0.00;0.00;;;12.30;75.70;;;;;;5045937;28;20512;-78
2021/10/13 06:49:44;;;;;;;0.00;0.00;;;12.30;76.00;;;;;;5042202;28;20029;-80
2021/10/13 06:52:09;;;;;;;0.00;0.00;;;12.20;76.00;;;;;;5025271;28;20029;-77
2021/10/13 06:54:35;;;;;;;0.00;0.00;;;12.20;76.20;;;;;;5028434;28;20092;-79
2021/10/13 06:57:01;;;;;;;0.00;0.00;;;12.10;76.40;;;;;;5039564;28;20030;-78
2021/10/13 06:59:27;;;;;;;0.00;0.00;;;12.10;76.60;;;;;;5018961;28;20033;-79
2021/10/13 07:01:52;;;;;;;0.00;0.00;;;12.10;76.80;;;;;;5040242;28;20032;-76
2021/10/13 07:04:18;;;;;;;0.00;0.00;;;12.00;77.00;;;;;;5057172;28;20107;-79
2021/10/13 07:06:44;;;;;;;0.00;0.00;;;12.00;76.90;;;;;;5056660;28;20029;-78
2021/10/13 07:09:10;;;;;;;0.00;0.00;;;12.00;77.00;;;;;;5057337;28;20021;-79
2021/10/13 07:11:35;;;;;;;0.00;0.00;;;11.90;77.20;;;;;;5056905;28;20033;-78
2021/10/13 07:14:03;;;;;;;0.00;0.00;;;11.90;77.10;;;;;;5038313;28;20209;-77
2021/10/13 07:16:29;;;;;;;0.00;0.00;;;11.80;77.10;;;;;;5037589;28;20072;-78
2021/10/13 07:18:55;;;;;;;0.00;0.00;;;11.80;77.40;;;;;;5020046;28;20108;-79
2021/10/13 07:21:21;;;;;;;0.00;0.00;;;11.70;77.40;;;;;;5037477;28;20056;-79
2021/10/13 07:23:47;;;;;;;0.00;0.00;;;11.70;77.60;;;;;;5044459;28;20029;-77
2021/10/13 07:26:13;;;;;;;0.00;0.00;;;11.70;77.70;;;;;;5056986;28;20103;-79
2021/10/13 07:28:41;;;;;;;0.10;0.00;;;11.70;77.90;;;;;;5056735;28;20067;-77
2021/10/13 07:31:07;;;;;;;0.00;0.00;;;11.70;78.00;;;;;;5057848;28;20079;-79
2021/10/13 07:33:33;;;;;;;0.00;0.00;;;11.70;78.00;;;;;;5026674;28;20046;-78
2021/10/13 07:36:00;;;;;;;0.00;0.00;;;11.60;77.70;;;;;;5026360;28;20032;-76
2021/10/13 07:38:26;;;;;;;0.00;0.00;;;11.60;77.80;;;;;;5047789;28;20035;-77
2021/10/13 07:40:52;;;;;;;0.00;0.00;;;11.50;78.00;;;;;;5052975;28;20128;-78
2021/10/13 07:43:18;;;;;;;0.00;0.00;;;11.60;78.10;;;;;;5048409;28;20452;-77
2021/10/13 07:45:44;;;;;;;0.00;0.00;;;11.50;78.20;;;;;;5044453;28;20033;-77
2021/10/13 07:48:10;;;;;;;0.00;0.00;;;11.50;78.40;;;;;;5032398;28;20038;-77
2021/10/13 07:50:36;;;;;;;0.00;0.00;;;11.60;78.50;;;;;;5036308;28;20021;-77
2021/10/13 07:53:04;;;;;;;0.00;0.00;;;11.60;78.60;;;;;;5036573;28;20029;-78
2021/10/13 07:55:31;;;;;;;0.00;0.00;;;11.60;78.50;;;;;;5034940;28;20029;-78
2021/10/13 07:57:56;;;;;;;0.00;0.00;;;11.60;78.60;;;;;;5035737;28;20022;-77
2021/10/13 08:00:22;;;;;;;0.00;0.00;;;11.50;78.40;;;;;;5014734;28;20060;-78
2021/10/13 08:02:48;;;;;;;0.00;0.00;;;11.50;78.50;;;;;;5016206;28;20045;-78
2021/10/13 08:05:18;;;;;;;0.00;0.00;;;11.50;78.50;;;;;;5015850;28;20018;-77
2021/10/13 08:07:46;;;;;;;0.00;0.00;;;11.50;78.60;;;;;;5015924;28;20026;-76
2021/10/13 08:10:12;;;;;;;0.00;0.00;;;11.50;78.60;;;;;;5015637;28;20532;-77
2021/10/13 08:12:38;;;;;;;0.00;0.00;;;11.60;78.70;;;;;;5016034;28;20034;-77
2021/10/13 08:15:05;;;;;;;0.00;0.00;;;11.50;79.20;;;;;;5015062;28;20033;-77
2021/10/13 08:17:49;;;;;;;0.00;0.00;;;11.60;78.50;;;;;;5015960;28;20489;-77
2021/10/13 08:20:15;;;;;;;0.00;0.00;;;11.50;78.40;;;;;;5015274;28;20552;-77
2021/10/13 08:22:42;;;;;;;0.00;0.00;;;11.50;78.60;;;;;;5014907;28;20073;-79
2021/10/13 08:25:08;;;;;;;0.00;0.00;;;11.50;78.60;;;;;;5022198;28;20067;-79
2021/10/13 08:27:34;;;;;;;0.00;0.00;;;11.40;78.70;;;;;;5016198;28;20026;-78
2021/10/13 08:30:00;;;;;;;0.00;0.00;;;11.40;78.90;;;;;;5017571;28;20028;-79
2021/10/13 08:32:26;;;;;;;0.00;0.00;;;11.40;79.10;;;;;;5024961;28;20381;-77
2021/10/13 08:34:51;;;;;;;0.00;0.00;;;11.40;79.30;;;;;;5018131;28;20053;-77
2021/10/13 08:37:17;;;;;;;0.00;0.00;;;11.40;79.40;;;;;;5014401;28;20038;-78
2021/10/13 08:39:43;;;;;;;0.00;0.00;;;11.40;79.50;;;;;;5015329;28;20105;-78
2021/10/13 08:42:10;;;;;;;0.00;0.00;;;11.40;79.60;;;;;;5014647;28;20041;-78
2021/10/13 08:44:42;;;;;;;0.00;0.00;;;11.40;79.80;;;;;;5015462;28;20021;-78
2021/10/13 08:47:10;;;;;;;0.00;0.00;;;11.30;79.90;;;;;;5014093;28;20467;-79
2021/10/13 08:49:38;;;;;;;0.00;0.00;;;11.40;79.90;;;;;;5015748;28;20026;-78
2021/10/13 08:52:10;;;;;;;0.00;0.00;;;11.30;79.90;;;;;;5022874;28;20034;-82
2021/10/13 08:54:38;;;;;;;0.00;0.00;;;11.30;80.10;;;;;;5022539;28;20021;-82
2021/10/13 08:57:18;;;;;;;0.00;0.00;;;11.30;80.20;;;;;;5034111;28;20112;-80
2021/10/13 08:59:47;;;;;;;0.00;0.00;;;11.30;80.10;;;;;;5027287;28;20359;-80
2021/10/13 09:02:14;;;;;;;0.00;0.00;;;11.30;80.10;;;;;;5035128;28;20124;-81
2021/10/13 09:04:47;;;;;;;0.00;0.00;;;11.30;80.10;;;;;;5035262;28;20034;-80
2021/10/13 09:07:12;;;;;;;0.00;0.00;;;11.40;80.30;;;;;;5034952;28;20049;-81
2021/10/13 09:09:48;;;;;;;0.00;0.00;;;11.40;80.30;;;;;;5029667;28;20462;-80
2021/10/13 09:12:27;;;;;;;0.00;0.00;;;11.40;80.30;;;;;;5029188;28;20436;-80
2021/10/13 09:15:04;;;;;;;0.00;0.00;;;11.40;80.10;;;;;;5053677;28;20057;-80
2021/10/13 09:17:29;;;;;;;0.00;0.00;;;11.40;80.00;;;;;;5053111;28;20035;-82
2021/10/13 09:19:55;;;;;;;0.00;0.00;;;11.40;79.80;;;;;;5033345;28;20021;-81
2021/10/13 09:22:21;;;;;;;0.00;0.00;;;11.30;79.90;;;;;;5034313;28;20071;-80
2021/10/13 09:24:50;;;;;;;0.00;0.00;;;11.40;80.00;;;;;;5034552;28;20495;-80
2021/10/13 09:27:34;;;;;;;0.00;0.00;;;11.30;79.90;;;;;;5034514;28;20465;-80
2021/10/13 09:30:09;;;;;;;0.00;0.00;;;11.40;80.10;;;;;;5027258;28;20548;-79
2021/10/13 09:32:43;;;;;;;0.00;0.00;;;11.40;80.10;;;;;;5034557;28;20168;-84
2021/10/13 09:35:09;;;;;;;0.00;0.00;;;11.30;79.90;;;;;;5055904;28;20051;-81
2021/10/13 09:37:47;;;;;;;0.00;0.00;;;11.40;80.10;;;;;;5058362;28;20112;-81
2021/10/13 09:40:14;;;;;;;0.00;0.00;;;11.30;79.90;;;;;;5072727;28;20028;-81
2021/10/13 09:42:41;;;;;;;0.00;0.00;;;11.30;79.90;;;;;;5069741;28;20396;-81
2021/10/13 09:45:13;;;;;;;0.00;0.00;;;11.30;80.10;;;;;;5045907;28;20021;-81
2021/10/13 09:47:40;;;;;;;0.00;0.00;;;11.30;80.10;;;;;;5043923;28;21333;-81
2021/10/13 09:50:11;;;;;;;0.00;0.00;;;11.20;80.10;;;;;;5043994;28;20033;-82
2021/10/13 09:52:37;;;;;;;0.00;0.00;;;11.20;80.20;;;;;;5027443;28;20048;-79
2021/10/13 09:55:08;;;;;;;0.00;0.00;;;11.20;80.30;;;;;;5045047;28;20029;-81
2021/10/13 09:57:41;;;;;;;0.00;0.00;;;11.20;80.30;;;;;;5025807;28;20113;-81
2021/10/13 10:00:13;;;;;;;0.00;0.00;;;11.20;80.30;;;;;;5043931;28;20064;-80
2021/10/13 10:02:58;;;;;;;0.00;0.00;;;11.30;80.30;;;;;;5028195;28;20417;-81
2021/10/13 10:05:37;;;;;;;0.00;0.00;;;11.20;80.40;;;;;;5041752;28;20496;-81
2021/10/13 10:08:08;;;;;;;0.00;0.00;;;11.20;80.30;;;;;;5042622;28;20037;-82
2021/10/13 10:10:35;;;;;;;0.00;0.00;;;11.20;80.30;;;;;;5040530;28;20031;-80
2021/10/13 10:13:13;;;;;;;0.00;0.00;;;11.20;80.40;;;;;;5042769;28;20087;-80
2021/10/13 10:15:40;;;;;;;0.00;0.00;;;11.20;80.40;;;;;;5044145;28;20031;-81
2021/10/13 10:18:30;;;;;;;0.00;0.00;;;11.20;80.40;;;;;;5047466;28;20021;-81
2021/10/13 10:20:55;;;;;;;0.00;0.00;;;11.20;80.60;;;;;;5028508;28;20022;-80
2021/10/13 10:23:29;;;;;;;0.00;0.00;;;11.20;80.50;;;;;;5039860;28;20044;-81
2021/10/13 10:25:58;;;;;;;0.00;0.00;;;11.20;80.60;;;;;;5040883;28;20029;-81
2021/10/13 10:28:57;;;;;;;0.00;0.00;;;11.20;81.20;;;;;;5028958;28;20116;-82
2021/10/13 10:32:07;;;;;;;0.00;0.00;;;11.20;81.10;;;;;;5042513;28;20385;-83
2021/10/13 10:34:39;;;;;;;0.00;0.00;;;11.30;80.80;;;;;;5043543;28;20049;-79
2021/10/13 10:37:05;;;;;;;0.00;0.00;;;11.30;80.30;;;;;;5051490;28;20064;-83
2021/10/13 10:39:55;;;;;;;0.00;0.00;;;11.30;80.40;;;;;;5051265;28;20025;-83
2021/10/13 10:42:43;;;;;;;0.00;0.00;;;11.20;80.40;;;;;;5048326;28;20033;-84
2021/10/13 10:45:12;;;;;;;0.00;0.00;;;11.20;80.40;;;;;;5040432;28;20067;-82
2021/10/13 10:47:52;;;;;;;0.00;0.00;;;11.20;80.30;;;;;;5055979;28;20105;-82
2021/10/13 10:50:46;;;;;;;0.00;0.00;;;11.20;80.40;;;;;;5060334;28;20025;-82
2021/10/13 10:53:31;;;;;;;0.00;0.00;;;11.10;80.50;;;;;;5056768;28;20056;-83
2021/10/13 10:56:27;;;;;;;0.00;0.00;;;11.20;80.60;;;;;;5048189;28;20022;-81
2021/10/13 10:58:57;;;;;;;0.00;0.00;;;11.10;80.50;;;;;;5056829;28;20108;-84
2021/10/13 11:01:23;;;;;;;0.00;0.00;;;11.20;80.40;;;;;;5029724;28;20079;-83
2021/10/13 11:03:48;;;;;;;0.00;0.00;;;11.20;80.50;;;;;;5046509;28;20029;-84
2021/10/13 11:06:28;;;;;;;0.00;0.00;;;11.20;80.60;;;;;;5049564;28;20033;-80
2021/10/13 11:09:02;;;;;;;0.00;0.00;;;11.10;80.60;;;;;;5028991;28;20112;-81
2021/10/13 11:11:34;;;;;;;0.00;0.00;;;11.20;80.60;;;;;;5023571;28;20061;-79
2021/10/13 11:13:59;;;;;;;0.00;0.00;;;11.20;80.70;;;;;;5047342;28;20076;-79
2021/10/13 11:16:26;;;;;;;0.00;0.00;;;11.20;80.60;;;;;;5044003;28;20057;-80
2021/10/13 11:18:52;;;;;;;0.00;0.00;;;11.20;81.10;;;;;;5023760;28;20691;-80
2021/10/13 11:21:18;;;;;;;0.00;0.00;;;11.20;80.60;;;;;;5025830;28;20021;-79
2021/10/13 11:23:45;;;;;;;0.00;0.00;;;11.20;80.60;;;;;;5046370;28;20385;-81
2021/10/13 11:26:11;;;;;;;0.00;0.00;;;11.20;80.60;;;;;;5026123;28;20032;-79
2021/10/13 11:28:38;;;;;;;0.00;0.00;;;11.20;80.80;;;;;;5047702;28;20017;-78
2021/10/13 11:31:07;;;;;;;0.00;0.00;;;11.20;80.70;;;;;;5043675;28;20029;-80
2021/10/13 11:33:35;;;;;;;0.00;0.00;;;11.30;80.80;;;;;;5046020;28;20053;-82
2021/10/13 11:36:04;;;;;;;0.00;0.00;;;11.30;80.70;;;;;;5029302;28;20029;-80
2021/10/13 11:38:36;;;;;;;0.00;0.00;;;11.30;80.70;;;;;;5043118;28;20032;-80
2021/10/13 11:41:15;;;;;;;0.00;0.00;;;11.30;80.70;;;;;;5052916;28;20025;-80
2021/10/13 11:43:43;;;;;;;0.00;0.00;;;11.30;80.60;;;;;;5034343;28;20097;-80
2021/10/13 11:46:16;;;;;;;0.00;0.00;;;11.30;80.60;;;;;;5047222;28;20021;-81
2021/10/13 11:48:42;;;;;;;0.00;0.00;;;11.30;80.60;;;;;;5030480;28;20105;-79
2021/10/13 11:51:14;;;;;;;0.00;0.00;;;11.30;80.60;;;;;;5052122;28;20115;-81
2021/10/13 11:53:41;;;;;;;0.00;0.00;;;11.30;80.70;;;;;;5037209;28;20032;-80
2021/10/13 11:56:11;;;;;;;0.00;0.00;;;11.30;80.70;;;;;;5032411;28;20071;-79
2021/10/13 11:58:38;;;;;;;0.00;0.00;;;11.30;80.70;;;;;;5039101;28;20055;-78
2021/10/13 12:01:04;;;;;;;0.00;0.00;;;11.30;80.70;;;;;;5028953;28;20022;-80
2021/10/13 12:03:35;;;;;;;0.00;0.00;;;11.30;80.80;;;;;;5044305;28;20029;-79
2021/10/13 12:06:02;;;;;;;0.00;0.00;;;11.30;80.80;;;;;;5047196;28;20100;-80
2021/10/13 12:08:35;;;;;;;0.10;0.00;;;11.30;81.00;;;;;;5045834;28;20029;-80
2021/10/13 12:11:12;;;;;;;0.00;0.00;;;11.30;80.80;;;;;;5043003;28;20018;-78
2021/10/13 12:13:40;;;;;;;0.00;0.00;;;11.30;80.80;;;;;;5041564;28;20036;-78
2021/10/13 12:16:09;;;;;;;0.00;0.00;;;11.30;80.90;;;;;;5046515;28;20516;-80
2021/10/13 12:18:40;;;;;;;0.00;0.00;;;11.30;81.10;;;;;;5030111;28;20376;-80
2021/10/13 12:21:14;;;;;;;0.00;0.00;;;11.30;81.10;;;;;;5045515;28;20056;-83
2021/10/13 12:24:05;;;;;;;0.00;0.00;;;11.30;81.10;;;;;;5025646;28;20025;-78
2021/10/13 12:26:38;;;;;;;0.00;0.00;;;11.30;81.20;;;;;;5028123;28;20036;-80
2021/10/13 12:29:09;;;;;;;0.00;0.00;;;11.30;81.20;;;;;;5032161;28;20036;-79
2021/10/13 12:31:42;;;;;;;0.00;0.00;;;11.30;81.30;;;;;;5028699;28;20473;-80
2021/10/13 12:34:17;;;;;;;0.00;0.00;;;11.30;81.40;;;;;;5043339;28;20478;-79
2021/10/13 12:36:54;;;;;;;0.00;0.00;;;11.30;81.40;;;;;;5045664;28;20428;-81
2021/10/13 12:39:33;;;;;;;0.00;0.00;;;11.30;81.40;;;;;;5044317;28;20063;-79
2021/10/13 12:42:10;;;;;;;0.00;0.00;;;11.30;81.40;;;;;;5030380;28;20017;-78
2021/10/13 12:44:38;;;;;;;0.00;0.00;;;11.30;81.40;;;;;;5025317;28;20109;-78
2021/10/13 12:47:14;;;;;;;0.00;0.00;;;11.40;81.30;;;;;;5040298;28;20036;-78
2021/10/13 12:49:45;;;;;;;0.00;0.00;;;11.30;81.20;;;;;;5042882;28;20108;-80
2021/10/13 12:52:15;;;;;;;0.00;0.00;;;11.40;81.30;;;;;;5037679;28;20021;-78
2021/10/13 12:54:43;;;;;;;0.00;0.00;;;11.40;81.30;;;;;;5041752;28;20033;-79
2021/10/13 12:57:16;;;;;;;0.00;0.00;;;11.40;81.20;;;;;;5035204;28;20022;-79